This is the latest recevied weather packets stored in our database for station/object KN6KDD. If no packets are shown the sender has not sent any weather packets the latest 10 day(s).
| Time | Temp. | Humidity | Pressure | Rain* | Wind** | Luminosity | Snow |
|---|---|---|---|---|---|---|---|
| 1777391635 | 12.78° C | 78% | 1360.5 hPa | 0 mm | - | 482 W/m² | - |
| 1777391332 | 12.78° C | 78% | 1360.4 hPa | 0 mm | - | 315 W/m² | - |
| 1777391029 | 11.67° C | 81% | 1360.3 hPa | 0 mm | - | 249 W/m² | - |
| 1777390724 | 12.22° C | 80% | 1360.4 hPa | 0 mm | - | 216 W/m² | - |
| 1777390422 | 11.67° C | 81% | 1360.1 hPa | 0 mm | - | 195 W/m² | - |
| 1777390118 | 11.67° C | 83% | 1360.3 hPa | 0 mm | - | 182 W/m² | - |
| 1777389814 | 11.11° C | 84% | 1360.1 hPa | 0 mm | - | 177 W/m² | - |
| 1777389511 | 10.56° C | 86% | 1360.3 hPa | 0 mm | - | 176 W/m² | - |
| 1777389208 | 10.56° C | 87% | 1359.9 hPa | 0 mm | - | 174 W/m² | - |
| 1777388906 | 10.56° C | 86% | 1359.9 hPa | 0 mm | - | 176 W/m² | - |
| 1777388602 | 10.56° C | 87% | 1359.9 hPa | 0 mm | - | 112 W/m² | - |
| 1777388299 | 10° C | 88% | 1359.6 hPa | 0 mm | - | 93 W/m² | - |
| 1777387999 | 9.44° C | 89% | 1359.6 hPa | 0 mm | - | 118 W/m² | - |
| 1777387696 | 9.44° C | 89% | 1359.6 hPa | 0 mm | - | 95 W/m² | - |
| 1777387392 | 9.44° C | 91% | 1359.6 hPa | 0 mm | - | 93 W/m² | - |
| 1777387092 | 8.89° C | 95% | 1359.6 hPa | 0 mm | - | 121 W/m² | - |
| 1777386789 | 8.33° C | 96% | 1359.6 hPa | 0 mm | - | 62 W/m² | - |
| 1777386486 | 8.33° C | 97% | 1359.3 hPa | 0 mm | - | 50 W/m² | - |
| 1777386182 | 8.33° C | 97% | 1359.2 hPa | 0 mm | - | 46 W/m² | - |
| 1777385880 | 7.78° C | 97% | 1359.2 hPa | 0 mm | - | 44 W/m² | - |
| 1777385576 | 7.78° C | 97% | 1359.2 hPa | 0 mm | - | 40 W/m² | - |
| 1777385274 | 7.78° C | 97% | 1359.2 hPa | 0 mm | - | 38 W/m² | - |
| 1777384969 | 7.78° C | 97% | 1359 hPa | 0 mm | - | 34 W/m² | - |
| 1777384667 | 7.78° C | 97% | 1358.7 hPa | 0 mm | - | 31 W/m² | - |
| 1777384366 | 7.78° C | 97% | 1358.8 hPa | 0 mm | - | 27 W/m² | - |
* Rain latest hour (hover to see other rain measurements)
** Current wind speed in m/s (hover to see current wind gust speed)